Tiempo atmosférico en la estación meteorológica de Manilva, Málaga (140 m.)



Fecha
DESCASC
Temp. máxima en grados centígrados (hora)
DESCASC
Temp. mínima en grados centígrados (hora)
DESCASC
Temp. media en grados centígrados
DESCASC
Racha de viento máxima en m/sg (hora)
DESCASC
Velocidad máxima media en intervalos de 10 minutos(hora)
DESCASC
Precipitaciones diarias en mm
DESCASC
Precipitaciones de 00:00 a 06:00 en mm
DESCASC
Precipitaciones de 06:00 a 12:00 en mm
DESCASC
Precipitaciones de 12:00 a 18:00 en mm
DESCASC
Precipitaciones de 18:00 a 24:00 en mm
DESCASC
11-12-2019 18.7 (14:10) 12 (05:40) 15.4 15 (23:30) 11.11 (23:30) 0 0 0 0 0
10-12-2019 21.5 (15:40) 11.5 (07:00) 16.5 8.89 (15:50) 6.39 (23:20) 0 0 0 0 0
09-12-2019 21 (13:20) 13 (05:10) 17 12.5 (02:10) 8.89 (02:10) 0 0 0 0 0
08-12-2019 20.4 (14:30) 9.8 (00:00) 15.1 10 (21:10) 6.94 (20:40) 0 0 0 0 0
07-12-2019 18.5 (15:20) 11.9 (00:00) 15.2 6.11 (01:30) 3.33 (01:50) 0 0 0 0 0
06-12-2019 16.7 (14:50) 13.2 (00:00) 15 9.72 (11:50) 5.83 (11:50) 0 0 0 0 0
05-12-2019 15.2 (15:20) 9.9 (00:00) 12.5 9.44 (18:20) 5.83 (18:10) 0 0 0 0 0
04-12-2019 17.1 (13:40) 10.7 (00:00) 13.9 11.39 (14:00) 6.67 (14:00) 0 0 0 0 0
03-12-2019 16 (15:40) 11.6 (00:00) 13.8 8.33 (10:30) 6.39 (10:30) 0.2 0.2 0 0 0
02-12-2019 13.5 (12:50) 10.7 (00:00) 12.1 9.44 (13:50) 4.72 (14:00) 10.2 0 1.4 8 0.8
01-12-2019 18.8 (14:40) 12.1 (00:00) 15.4 11.67 (13:00) 6.39 (14:10) 1.8 0.2 0 1 0.6
30-11-2019 21.8 (14:40) 12.3 (00:00) 17 10.83 (22:50) 6.94 (20:10) 0 0 0 0 0
29-11-2019 22.3 (14:30) 12.4 (00:00) 17.3 6.67 (03:00) 5 (04:50) 0 0 0 0 0
28-11-2019 21.9 (15:40) 12.2 (00:00) 17 10.56 (13:10) 6.11 (14:40) 0 0 0 0 0
27-11-2019 20.4 (13:30) 13.8 (00:00) 17.1 11.67 (01:00) 7.5 (00:40) 0 0 0 0 0
26-11-2019 21.5 (13:00) 14.6 (00:00) 18.1 12.22 (18:00) 7.78 (14:40) 0 0 0 0 0
25-11-2019 18.6 (13:20) 11.3 (00:00) 15 11.94 (12:30) 8.33 (11:20) 0 0 0 0 0
24-11-2019 17.9 (15:10) 9.1 (00:00) 13.5 11.94 (17:10) 7.22 (14:00) 0 0 0 0 0
23-11-2019 16.9 (14:00) 10.6 (00:00) 13.8 14.72 (01:10) 8.89 (01:30) 0 0 0 0 0
22-11-2019 18.4 (18:00) 14.2 (00:00) 16.3 19.17 (17:40) 11.11 (18:00) 37.6 5 22 1 9.6
21-11-2019 15.1 (13:40) 11.4 (00:00) 13.3 6.39 (23:59) 3.89 (23:59) 25.2 2.6 3.4 17.8 1.4
20-11-2019 13 (13:20) 9 (00:00) 11 5.83 (14:20) 3.61 (02:50) 3.8 0 1.2 2.6 0
19-11-2019 18.5 (15:20) 8.7 (00:00) 13.6 8.89 (10:20) 5.56 (05:10) 0 0 0 0 0
18-11-2019 17.3 (15:30) 9.8 (00:00) 13.5 15.56 (06:00) 10.56 (07:40) 0.8 0.8 0 0 0
17-11-2019 15.3 (23:00) 7 (00:00) 11.2 14.17 (11:30) 7.5 (11:30) 0.4 0 0 0 0.4
16-11-2019 16.2 (15:20) 5.6 (00:00) 10.9 10.83 (16:50) 6.67 (15:50) 0 0 0 0 0
15-11-2019 14.7 (14:10) 8.9 (00:00) 11.8 13.89 (09:50) 9.17 (10:00) 0 0 0 0 0

Gráficas

Temp. máximas Temp. mínimas Temp. medias Precipitaciones Rachas de viento máximas Velocidades máximas media en intervalos de 10 minutos

Datos horarios

Fecha y hora oficial Temperatura (ºC) Velocidad del viento (km/h) Dirección del viento Racha (km/h) Dirección de racha Precipitación (mm) Presión (hPa) Tendencia (hPa) Humedad (%)
2019-12-14 23:00:00 12.6 18 Noroeste 35 Noroeste 0 -- -- 65
2019-12-14 22:00:00 12.9 19 Noroeste 35 Noroeste 0 -- -- 64
2019-12-14 21:00:00 13 18 Noroeste 39 Norte 0 -- -- 65
2019-12-14 20:00:00 13.2 21 Noroeste 41 Noroeste 0 -- -- 66
2019-12-14 19:00:00 14 27 Noroeste 43 Noroeste 0 -- -- 64
2019-12-14 18:00:00 15 25 Noroeste 43 Noroeste 0 -- -- 62
2019-12-14 17:00:00 17.2 23 Norte 43 Noroeste 0 -- -- 56
2019-12-14 16:00:00 18.2 22 Noroeste 47 Noroeste 0 -- -- 53
2019-12-14 15:00:00 18.2 23 Noroeste 48 Oeste 0 -- -- 54
2019-12-14 14:00:00 18.5 21 Noroeste 48 Norte 0 -- -- 54
2019-12-14 13:00:00 17.5 24 Noroeste 41 Oeste 0 -- -- 58
2019-12-14 12:00:00 16.6 17 Norte 38 Noroeste 0 -- -- 61
2019-12-14 11:00:00 15.3 21 Norte 44 Norte 0 -- -- 65
2019-12-14 10:00:00 14 21 Norte 35 Norte 0 -- -- 73
2019-12-14 09:00:00 12.9 22 Noroeste 39 Norte 0 -- -- 77
2019-12-14 08:00:00 13.4 32 Noroeste 49 Noroeste 0 -- -- 75
2019-12-14 07:00:00 13.2 26 Noroeste 44 Noroeste 0 -- -- 78
2019-12-14 06:00:00 13 21 Noroeste 39 Noroeste 0 -- -- 82
2019-12-14 05:00:00 13.3 17 Norte 42 Noroeste 0 -- -- 79
2019-12-14 04:00:00 13.3 19 Noroeste 32 Noroeste 0 -- -- 83
2019-12-14 03:00:00 13.6 11 Noroeste 25 Norte 0 -- -- 82
2019-12-14 02:00:00 14.4 8 Noroeste 40 Norte 0 -- -- 79
2019-12-14 01:00:00 14.4 12 Noroeste 34 Oeste 0 -- -- 80
2019-12-14 00:00:00 14.3 18 Noroeste 32 Noroeste 0 -- -- 81
2019-12-13 23:00:00 14.2 7 Noroeste 27 Oeste 0 -- -- 81
2019-12-13 22:00:00 14.8 15 Noroeste 35 Noroeste 0 -- -- 79
2019-12-13 21:00:00 14.8 18 Noroeste 40 Norte 0 -- -- 79
2019-12-13 20:00:00 14.8 12 Noroeste 32 Noroeste 0 -- -- 76
2019-12-13 19:00:00 15.5 19 Norte 53 Norte 0 -- -- 73
2019-12-13 18:00:00 15.9 27 Noroeste 48 Noroeste 0 -- -- 72
2019-12-13 17:00:00 16.5 21 Noroeste 38 Oeste 0 -- -- 71
2019-12-13 16:00:00 16.5 24 Oeste 40 Oeste 0 -- -- 71
2019-12-13 15:00:00 17.1 17 Noroeste 46 Oeste 0 -- -- 72
2019-12-13 14:00:00 17.1 21 Noroeste 42 Noroeste 0 -- -- 72
2019-12-13 13:00:00 16.5 22 Noroeste 41 Noroeste 0 -- -- 76
2019-12-13 12:00:00 15.8 26 Noroeste 53 Noroeste 0 -- -- 80
2019-12-13 11:00:00 15.8 35 Noroeste 55 Oeste 0 -- -- 78
2019-12-13 10:00:00 14.5 33 Noroeste 54 Noroeste 0 -- -- 88
2019-12-13 09:00:00 14.4 28 Noroeste 42 Oeste 0 -- -- 89
2019-12-13 08:00:00 14.2 31 Noroeste 45 Oeste 0.2 -- -- 87
2019-12-13 07:00:00 13.9 25 Noroeste 41 Noroeste 0 -- -- 92
2019-12-13 06:00:00 13.8 24 Noroeste 42 Oeste 0 -- -- 93
2019-12-13 05:00:00 13.6 26 Noroeste 44 Oeste 0.2 -- -- 94
2019-12-13 04:00:00 13.4 22 Noroeste 35 Oeste 0.6 -- -- 93
2019-12-13 03:00:00 13.3 23 Noroeste 37 Oeste 0.2 -- -- 92
2019-12-13 02:00:00 13.8 21 Noroeste 43 Noroeste 0 -- -- 85
2019-12-13 01:00:00 14.1 26 Noroeste 44 Oeste 0 -- -- 80
2019-12-13 00:00:00 14.2 25 Noroeste 40 Oeste 0 -- -- 78
2019-12-12 23:00:00 14.1 23 Oeste 48 Oeste 0 -- -- 78
2019-12-12 22:00:00 14 27 Oeste 46 Oeste 0 -- -- 77
2019-12-12 21:00:00 13.9 27 Oeste 44 Oeste 0 -- -- 76
2019-12-12 20:00:00 13.7 18 Noroeste 32 Oeste 0 -- -- 73
2019-12-12 19:00:00 13.6 10 Oeste 37 Oeste 0 -- -- 70
2019-12-12 18:00:00 13.8 18 Oeste 38 Oeste 0 -- -- 68
2019-12-12 17:00:00 15.2 21 Noroeste 43 Noroeste 0 -- -- 56
2019-12-12 16:00:00 15.7 17 Noroeste 40 Noroeste 0 -- -- 55
2019-12-12 15:00:00 15.7 28 Norte 47 Norte 0 -- -- 55
2019-12-12 14:00:00 15.7 24 Norte 51 Norte 0 -- -- 55
2019-12-12 13:00:00 14.6 27 Norte 61 Noroeste 0 -- -- 56
2019-12-12 12:00:00 14.2 33 Norte 54 Norte 0 -- -- 53
2019-12-12 11:00:00 12.6 23 Noroeste 37 Noroeste 0 -- -- 54
2019-12-12 10:00:00 11.6 21 Noroeste 31 Noroeste 0 -- -- 57
2019-12-12 09:00:00 9.8 17 Noroeste 34 Noroeste 0 -- -- 62
2019-12-12 08:00:00 10 19 Noroeste 35 Noroeste 0 -- -- 59
2019-12-12 07:00:00 9.9 14 Noroeste 28 Noroeste 0 -- -- 61
2019-12-12 06:00:00 9.9 17 Noroeste 36 Norte 0 -- -- 62
2019-12-12 05:00:00 11 24 Norte 48 Norte 0 -- -- 57
2019-12-12 04:00:00 11.6 30 Norte 47 Norte 0 -- -- 57
2019-12-12 03:00:00 11.2 22 Noroeste 40 Norte 0 -- -- 61
2019-12-12 02:00:00 11.4 28 Noroeste 41 Noroeste 0 -- -- 59
2019-12-12 01:00:00 12.3 22 Noroeste 49 Norte 0 -- -- 55
2019-12-12 00:00:00 13.2 25 Norte 54 Norte 0 -- -- 50
2019-12-11 23:00:00 13.5 28 Norte 46 Norte 0 -- -- 56
2019-12-11 22:00:00 13.3 16 Noroeste 32 Noroeste 0 -- -- 77
2019-12-11 21:00:00 13.8 21 Noroeste 31 Norte 0 -- -- 76
2019-12-11 20:00:00 14.1 12 Noroeste 36 Norte 0 -- -- 78
2019-12-11 19:00:00 15 10 Noroeste 39 Norte 0 -- -- 73
2019-12-11 18:00:00 15.9 10 Noroeste 42 Noroeste 0 -- -- 63
2019-12-11 17:00:00 18 20 Noroeste 44 Noroeste 0 -- -- 52
2019-12-11 16:00:00 18.1 32 Noroeste 49 Oeste 0 -- -- 50
2019-12-11 15:00:00 18.2 30 Noroeste 46 Oeste 0 -- -- 41
2019-12-11 14:00:00 18.5 35 Oeste 46 Noroeste 0 -- -- 35
2019-12-11 13:00:00 17.7 28 Oeste 45 Oeste 0 -- -- 42
2019-12-11 12:00:00 15.9 23 Oeste 39 Sudoeste 0 -- -- 60
2019-12-11 11:00:00 15 28 Oeste 40 Oeste 0 -- -- 68
2019-12-11 10:00:00 14.2 28 Noroeste 46 Noroeste 0 -- -- 71
2019-12-11 09:00:00 12.6 26 Noroeste 37 Noroeste 0 -- -- 81
2019-12-11 08:00:00 12.3 26 Noroeste 38 Noroeste 0 -- -- 74
2019-12-11 07:00:00 12.7 20 Noroeste 46 Oeste 0 -- -- 68
2019-12-11 06:00:00 13.2 37 Noroeste 47 Oeste 0 -- -- 62
2019-12-11 05:00:00 12.1 26 Noroeste 37 Noroeste 0 -- -- 65
2019-12-11 04:00:00 12.8 18 Noroeste 32 Noroeste 0 -- -- 59
2019-12-11 03:00:00 12.4 24 Noroeste 37 Noroeste 0 -- -- 63
2019-12-11 02:00:00 13.1 25 Noroeste 37 Noroeste 0 -- -- 60
2019-12-11 01:00:00 13.9 19 Noroeste 33 Noroeste 0 -- -- 44
2019-12-11 00:00:00 14.1 21 Noroeste 32 Noroeste 0 -- -- 47
2019-12-10 23:00:00 14.4 20 Noroeste 30 Noroeste 0 -- -- 50
2019-12-10 22:00:00 15 19 Noroeste 28 Norte 0 -- -- 51
2019-12-10 21:00:00 14.5 9 Noroeste 20 Noroeste 0 -- -- 63
2019-12-10 20:00:00 14.2 4 Norte 9 Noroeste 0 -- -- 70
2019-12-10 19:00:00 15.5 0 Calma 17 Noroeste 0 -- -- 65
2019-12-10 18:00:00 17.2 9 Norte 28 Oeste 0 -- -- 59
2019-12-10 17:00:00 19.7 22 Oeste 31 Oeste 0 -- -- 54
2019-12-10 16:00:00 21.3 17 Oeste 32 Oeste 0 -- -- 50
2019-12-10 15:00:00 20.9 18 Noroeste 26 Noroeste 0 -- -- 41
2019-12-10 14:00:00 20.6 12 Noroeste 19 Oeste 0 -- -- 45
2019-12-10 13:00:00 18.9 4 Nordeste 10 Nordeste 0 -- -- 48
2019-12-10 12:00:00 17.4 6 Sur 11 Sur 0 -- -- 55
2019-12-10 11:00:00 15.4 3 Este 8 Sur 0 -- -- 63
2019-12-10 10:00:00 15.3 0 Calma 7 Noroeste 0 -- -- 63
2019-12-10 09:00:00 12 3 Norte 7 Noroeste 0 -- -- 79
2019-12-10 08:00:00 11.8 3 Noroeste 7 Noroeste 0 -- -- 77
2019-12-10 07:00:00 11.5 2 Noroeste 7 Noroeste 0 -- -- 74
2019-12-10 06:00:00 11.7 2 Norte 8 Noroeste 0 -- -- 64
2019-12-10 05:00:00 12.5 4 Norte 16 Noroeste 0 -- -- 54
2019-12-10 04:00:00 12.7 3 Norte 20 Noroeste 0 -- -- 60
2019-12-10 03:00:00 13.7 6 Norte 15 Norte 0 -- -- 63
2019-12-10 02:00:00 14.3 15 Noroeste 23 Noroeste 0 -- -- 59
2019-12-10 01:00:00 14.3 16 Noroeste 24 Noroeste 0 -- -- 66
2019-12-10 00:00:00 14.6 6 Norte 13 Noroeste 0 -- -- 74
2019-12-09 23:00:00 14.2 10 Noroeste 14 Noroeste 0 -- -- 78
2019-12-09 22:00:00 14.2 4 Norte 17 Noroeste 0 -- -- 78
2019-12-09 21:00:00 14.7 10 Noroeste 19 Noroeste 0 -- -- 77
2019-12-09 20:00:00 15.1 14 Noroeste 29 Noroeste 0 -- -- 77
2019-12-09 19:00:00 15.5 17 Noroeste 27 Noroeste 0 -- -- 77
2019-12-09 18:00:00 16.7 17 Noroeste 29 Oeste 0 -- -- 72
2019-12-09 17:00:00 18.1 17 Noroeste 33 Noroeste 0 -- -- 67
2019-12-09 16:00:00 19.4 22 Noroeste 33 Noroeste 0 -- -- 64
2019-12-09 15:00:00 20 22 Noroeste 32 Oeste 0 -- -- 62
2019-12-09 14:00:00 20.6 18 Noroeste 29 Noroeste 0 -- -- 60
2019-12-09 13:00:00 20.6 13 Noroeste 29 Noroeste 0 -- -- 59
2019-12-09 12:00:00 19.5 15 Norte 26 Noroeste 0 -- -- 62
2019-12-09 11:00:00 18.2 14 Norte 35 Norte 0 -- -- 66
2019-12-09 10:00:00 17.5 26 Norte 43 Norte 0 -- -- 66
2019-12-09 09:00:00 15 26 Norte 37 Noroeste 0 -- -- 77
2019-12-09 08:00:00 14.4 20 Norte 34 Norte 0 -- -- 79
2019-12-09 07:00:00 15.1 23 Norte 37 Norte 0 -- -- 73
2019-12-09 06:00:00 13.3 22 Noroeste 40 Noroeste 0 -- -- 81
2019-12-09 05:00:00 13.1 24 Noroeste 36 Noroeste 0 -- -- 82
2019-12-09 04:00:00 13.4 15 Noroeste 33 Noroeste 0 -- -- 80
2019-12-09 03:00:00 14.3 23 Noroeste 45 Norte 0 -- -- 73
2019-12-09 02:00:00 15.4 29 Norte 40 Norte 0 -- -- 62
2019-12-09 01:00:00 14.5 24 Noroeste 37 Noroeste 0 -- -- 68
2019-12-09 00:00:00 13.8 22 Noroeste 35 Noroeste 0 -- -- 72
2019-12-08 23:00:00 13.9 19 Noroeste 30 Noroeste 0 -- -- 73
2019-12-08 22:00:00 14.6 21 Noroeste 36 Noroeste 0 -- -- 69
2019-12-08 21:00:00 14.8 23 Noroeste 35 Noroeste 0 -- -- 68
2019-12-08 20:00:00 15.3 21 Noroeste 33 Norte 0 -- -- 68
2019-12-08 19:00:00 15.6 21 Noroeste 36 Noroeste 0 -- -- 70
2019-12-08 18:00:00 17.1 19 Noroeste 30 Noroeste 0 -- -- 63
2019-12-08 17:00:00 19.5 17 Noroeste 33 Noroeste 0 -- -- 57
2019-12-08 16:00:00 20.1 20 Oeste 36 Oeste 0 -- -- 50
2019-12-08 15:00:00 20.3 16 Oeste 31 Oeste 0 -- -- 45
2019-12-08 14:00:00 19.8 17 Oeste 28 Oeste 0 -- -- 52
2019-12-08 13:00:00 18.3 17 Noroeste 25 Noroeste 0 -- -- 59
2019-12-08 12:00:00 16.8 15 Noroeste 26 Noroeste 0 -- -- 59
2019-12-08 11:00:00 14.8 14 Noroeste 24 Norte 0 -- -- 62
2019-12-08 10:00:00 12.4 3 Noroeste 9 Norte 0 -- -- 74
2019-12-08 09:00:00 9.9 5 Norte 8 Norte 0 -- -- 87
2019-12-08 08:00:00 10.1 2 Oeste 8 Noroeste 0 -- -- 90
2019-12-08 07:00:00 10.1 6 Noroeste 12 Noroeste 0 -- -- 91
2019-12-08 06:00:00 10.8 5 Norte 8 Norte 0 -- -- 91
2019-12-08 05:00:00 10.6 2 Noroeste 9 Noroeste 0 -- -- 89
2019-12-08 04:00:00 11.1 3 Noroeste 12 Noroeste 0 -- -- 92
2019-12-08 03:00:00 11.1 5 Noroeste 12 Noroeste 0 -- -- 93
2019-12-08 02:00:00 11.4 5 Norte 12 Noroeste 0 -- -- 93
2019-12-08 01:00:00 11.3 5 Noroeste 9 Noroeste 0 -- -- 91
2019-12-08 00:00:00 11.9 4 Noroeste 14 Noroeste 0 -- -- 90
2019-12-07 23:00:00 12 4 Noroeste 11 Noroeste 0 -- -- 90
2019-12-07 22:00:00 12.3 9 Noroeste 13 Noroeste 0 -- -- 90
2019-12-07 21:00:00 12.9 4 Norte 7 Norte 0 -- -- 91
2019-12-07 20:00:00 12.9 3 Noroeste 5 Norte 0 -- -- 88
2019-12-07 19:00:00 14.1 3 Noroeste 4 Noroeste 0 -- -- 82
2019-12-07 18:00:00 15.7 0 Calma 10 Sur 0 -- -- 78
2019-12-07 17:00:00 17.6 6 Sur 14 Sur 0 -- -- 71
2019-12-07 16:00:00 18.2 10 Sur 17 Sur 0 -- -- 68
2019-12-07 15:00:00 18.2 9 Sur 19 Sudeste 0 -- -- 68
2019-12-07 14:00:00 17.8 9 Sur 20 Sur 0 -- -- 70
2019-12-07 13:00:00 17.4 12 Sur 22 Sur 0 -- -- 66
2019-12-07 12:00:00 16.3 4 Sur 11 Sur 0 -- -- 76
2019-12-07 11:00:00 14.9 3 Sudeste 5 Este 0 -- -- 83
2019-12-07 10:00:00 14.2 3 Sudoeste 5 Sur 0 -- -- 85
2019-12-07 09:00:00 13.4 3 Noroeste 8 Noroeste 0 -- -- 85
2019-12-07 08:00:00 13.7 4 Norte 6 Noroeste 0 -- -- 83
2019-12-07 07:00:00 14.3 4 Sudeste 9 Sudeste 0 -- -- 81
2019-12-07 06:00:00 14.2 2 Este 8 Sudeste 0 -- -- 80
2019-12-07 05:00:00 14.2 8 Sudeste 12 Este 0 -- -- 80
2019-12-07 04:00:00 13.7 2 Sudeste 6 Este 0 -- -- 82
2019-12-07 03:00:00 14 3 Sudeste 15 Este 0 -- -- 81
2019-12-07 02:00:00 14.5 12 Sudeste 22 Este 0 -- -- 80
2019-12-07 01:00:00 14.6 9 Sudeste 21 Sudeste 0 -- -- 80
2019-12-07 00:00:00 14.2 7 Sudeste 15 Sudeste 0 -- -- 80
2019-12-06 23:00:00 13.7 4 Este 17 Este 0 -- -- 82
2019-12-06 22:00:00 14.1 4 Sudeste 26 Sudeste 0 -- -- 81
2019-12-06 21:00:00 14.5 15 Sudeste 26 Sudeste 0 -- -- 80
2019-12-06 20:00:00 14.6 15 Sudeste 25 Sudeste 0 -- -- 79
2019-12-06 19:00:00 14.8 10 Sudeste 21 Este 0 -- -- 77
2019-12-06 18:00:00 15.2 8 Sudeste 22 Sudeste 0 -- -- 73
2019-12-06 17:00:00 16.4 10 Sudeste 24 Sudeste 0 -- -- 69
2019-12-06 16:00:00 16.7 13 Sudeste 27 Sudeste 0 -- -- 69
2019-12-06 15:00:00 16.6 15 Sudeste 31 Sudeste 0 -- -- 71
2019-12-06 14:00:00 16.6 17 Sudeste 33 Este 0 -- -- 70
2019-12-06 13:00:00 16.4 15 Sudeste 32 Sudeste 0 -- -- 70
2019-12-06 12:00:00 16.1 20 Sudeste 35 Este 0 -- -- 71
2019-12-06 11:00:00 15.7 18 Sudeste 32 Sudeste 0 -- -- 72
2019-12-06 10:00:00 14.9 9 Sudeste 19 Este 0 -- -- 72
2019-12-06 09:00:00 13.9 5 Sudeste 20 Sudeste 0 -- -- 75
2019-12-06 08:00:00 13.6 5 Sudeste 17 Sudeste 0 -- -- 75
2019-12-06 07:00:00 13.7 10 Sudeste 18 Sudeste 0 -- -- 77
2019-12-06 06:00:00 13.5 4 Sudeste 14 Sudeste 0 -- -- 78
2019-12-06 05:00:00 13.7 5 Sudeste 13 Este 0 -- -- 80
2019-12-06 04:00:00 13.7 5 Sudeste 13 Este 0 -- -- 86
2019-12-06 03:00:00 13.4 8 Sudeste 14 Sudeste 0 -- -- 87
2019-12-06 02:00:00 13.3 4 Este 12 Este 0 -- -- 85
2019-12-06 01:00:00 13.4 5 Sudeste 15 Sudeste 0 -- -- 84
2019-12-06 00:00:00 13.6 8 Sudeste 15 Este 0 -- -- 83
2019-12-05 23:00:00 13.8 9 Sudeste 21 Este 0 -- -- 83
2019-12-05 22:00:00 14.1 15 Sudeste 31 Este 0 -- -- 83
2019-12-05 21:00:00 14.1 15 Sudeste 26 Este 0 -- -- 82
2019-12-05 20:00:00 14 12 Sudeste 28 Este 0 -- -- 82
2019-12-05 19:00:00 14 10 Este 34 Sudeste 0 -- -- 85
2019-12-05 18:00:00 14.3 19 Sudeste 32 Sudeste 0 -- -- 72
2019-12-05 17:00:00 14.4 19 Sudeste 30 Sudeste 0 -- -- 68
2019-12-05 16:00:00 14.4 15 Sudeste 30 Sudeste 0 -- -- 75
2019-12-05 15:00:00 14.5 9 Este 19 Sudeste 0 -- -- 76
2019-12-05 14:00:00 14.3 8 Sudeste 19 Sudeste 0 -- -- 73
2019-12-05 13:00:00 14.5 9 Sudeste 18 Sudeste 0 -- -- 69
2019-12-05 12:00:00 14.2 8 Sudeste 17 Sudeste 0 -- -- 62
2019-12-05 11:00:00 13.5 5 Sudeste 9 Este 0 -- -- 61
2019-12-05 10:00:00 11.4 0 Calma 10 Nordeste 0 -- -- 68
2019-12-05 09:00:00 10.7 2 Oeste 9 Nordeste 0 -- -- 68
2019-12-05 08:00:00 10.3 5 Norte 8 Nordeste 0 -- -- 64
2019-12-05 07:00:00 10.2 3 Norte 8 Noroeste 0 -- -- 59
2019-12-05 06:00:00 10.8 3 Nordeste 5 Norte 0 -- -- 54
2019-12-05 05:00:00 10.3 3 Norte 13 Noroeste 0 -- -- 62
2019-12-05 04:00:00 11.5 4 Norte 10 Noroeste 0 -- -- 54
2019-12-05 03:00:00 11.8 8 Noroeste 20 Noroeste 0 -- -- 51
2019-12-05 02:00:00 11.7 16 Noroeste 23 Noroeste 0 -- -- 59
2019-12-05 01:00:00 11.4 13 Noroeste 19 Noroeste 0 -- -- 63
2019-12-05 00:00:00 11.3 7 Noroeste 17 Noroeste 0 -- -- 61
2019-12-04 23:00:00 10.7 11 Noroeste 19 Noroeste 0 -- -- 65
2019-12-04 22:00:00 10.9 12 Noroeste 17 Noroeste 0 -- -- 62
2019-12-04 21:00:00 10.9 14 Noroeste 21 Noroeste 0 -- -- 65
2019-12-04 20:00:00 11.3 12 Noroeste 22 Oeste 0 -- -- 63
2019-12-04 19:00:00 11.9 14 Noroeste 24 Noroeste 0 -- -- 60
2019-12-04 18:00:00 12.8 15 Oeste 33 Noroeste 0 -- -- 55
2019-12-04 17:00:00 14 21 Oeste 35 Oeste 0 -- -- 56
2019-12-04 16:00:00 16.3 22 Oeste 39 Oeste 0 -- -- 52
2019-12-04 15:00:00 16.8 21 Noroeste 36 Oeste 0 -- -- 54
2019-12-04 14:00:00 16.8 24 Oeste 41 Sudoeste 0 -- -- 50
2019-12-04 13:00:00 15.6 14 Noroeste 32 Oeste 0 -- -- 65
2019-12-04 12:00:00 15.1 20 Noroeste 35 Noroeste 0 -- -- 69
2019-12-04 11:00:00 13.8 21 Noroeste 33 Oeste 0 -- -- 75
2019-12-04 10:00:00 13 16 Noroeste 23 Oeste 0 -- -- 82
2019-12-04 09:00:00 11.6 7 Noroeste 17 Noroeste 0 -- -- 87
2019-12-04 08:00:00 11.6 9 Noroeste 22 Oeste 0 -- -- 87
2019-12-04 07:00:00 11.6 14 Oeste 25 Oeste 0 -- -- 87
2019-12-04 06:00:00 11.1 14 Noroeste 23 Noroeste 0 -- -- 87
2019-12-04 05:00:00 10.9 13 Noroeste 19 Noroeste 0 -- -- 86
2019-12-04 04:00:00 11.1 11 Noroeste 16 Noroeste 0 -- -- 86
2019-12-04 03:00:00 11.5 9 Noroeste 17 Noroeste 0 -- -- 85
2019-12-04 02:00:00 12.1 12 Noroeste 22 Noroeste 0 -- -- 85
2019-12-04 01:00:00 12.6 15 Noroeste 22 Noroeste 0 -- -- 85
2019-12-04 00:00:00 13.1 13 Noroeste 19 Noroeste 0 -- -- 84
2019-12-03 23:00:00 13.3 10 Noroeste 20 Oeste 0 -- -- 84
2019-12-03 22:00:00 13.4 10 Noroeste 15 Noroeste 0 -- -- 84
2019-12-03 21:00:00 13.6 9 Noroeste 18 Oeste 0 -- -- 82
2019-12-03 20:00:00 14.1 15 Noroeste 22 Oeste 0 -- -- 79
2019-12-03 19:00:00 14.6 10 Noroeste 16 Oeste 0 -- -- 75
2019-12-03 18:00:00 14.8 3 Noroeste 13 Norte 0 -- -- 75
2019-12-03 17:00:00 15.3 3 Norte 20 Noroeste 0 -- -- 73
2019-12-03 16:00:00 15.6 10 Noroeste 18 Noroeste 0 -- -- 73
2019-12-03 15:00:00 15.2 0 Calma 9 Este 0 -- -- 76
2019-12-03 14:00:00 14.7 4 Sudeste 11 Sudeste 0 -- -- 78
2019-12-03 13:00:00 14.5 4 Sudeste 9 Sudeste 0 -- -- 75
2019-12-03 12:00:00 15 0 Calma 23 Noroeste 0 -- -- 73
2019-12-03 11:00:00 13.6 17 Noroeste 30 Noroeste 0 -- -- 81
2019-12-03 10:00:00 12.7 17 Noroeste 29 Noroeste 0 -- -- 81
2019-12-03 09:00:00 12.1 18 Noroeste 28 Norte 0 -- -- 84
2019-12-03 08:00:00 11.7 16 Noroeste 24 Norte 0 -- -- 88
2019-12-03 07:00:00 11.8 4 Noroeste 14 Noroeste 0 -- -- 88
2019-12-03 06:00:00 11.9 2 Nordeste 8 Norte 0.2 -- -- 87
2019-12-03 05:00:00 11.9 4 Norte 6 Norte 0 -- -- 87
2019-12-03 04:00:00 11.8 4 Norte 9 Nordeste 0 -- -- 92
2019-12-03 03:00:00 12.2 3 Este 18 Este 0 -- -- 94
2019-12-03 02:00:00 12.9 9 Este 21 Sudeste 0 -- -- 94
2019-12-03 01:00:00 13.2 6 Sudeste 21 Este 0 -- -- 94
2019-12-03 00:00:00 12.9 5 Este 27 Este 0 -- -- 93
2019-12-02 23:00:00 12.6 5 Este 20 Este 0 -- -- 92
2019-12-02 22:00:00 12.4 8 Este 23 Este 0 -- -- 90
2019-12-02 21:00:00 12.9 12 Sudeste 26 Sudeste 0 -- -- 93
2019-12-02 20:00:00 12.8 7 Este 24 Este 0.2 -- -- 93
2019-12-02 19:00:00 12.2 6 Sudeste 20 Este 0.6 -- -- 89
2019-12-02 18:00:00 12.1 5 Este 16 Este 1.4 -- -- 90
2019-12-02 17:00:00 11.8 5 Este 17 Este 1 -- -- 88
2019-12-02 16:00:00 11.1 4 Nordeste 20 Este 2.6 -- -- 92
2019-12-02 15:00:00 11.8 6 Sudeste 27 Este 2.8 -- -- 92
2019-12-02 14:00:00 12.7 17 Sudeste 34 Sudeste 0 -- -- 87
2019-12-02 13:00:00 13.3 10 Sudeste 23 Este 0.2 -- -- 81
2019-12-02 12:00:00 12.9 8 Este 19 Nordeste 0 -- -- 89
2019-12-02 11:00:00 12 7 Este 12 Este 0 -- -- 94
2019-12-02 10:00:00 11.9 8 Sudeste 14 Sudeste 0.2 -- -- 95
2019-12-02 09:00:00 11.6 0 Calma 4 Nordeste 1.2 -- -- 93
2019-12-02 08:00:00 11.7 0 Calma 10 Sudeste 0 -- -- 92
2019-12-02 07:00:00 11.5 3 Nordeste 7 Este 0 -- -- 92
2019-12-02 06:00:00 11 3 Norte 6 Nordeste 0 -- -- 92
2019-12-02 05:00:00 10.8 4 Nordeste 10 Nordeste 0 -- -- 91
2019-12-02 04:00:00 11 2 Norte 12 Noroeste 0 -- -- 92
2019-12-02 03:00:00 11.2 8 Noroeste 13 Noroeste 0 -- -- 93
2019-12-02 02:00:00 11.5 9 Noroeste 13 Noroeste 0 -- -- 92
2019-12-02 01:00:00 12.5 9 Oeste 17 Oeste 0 -- -- 90
2019-12-02 00:00:00 12.4 6 Oeste 13 Oeste 0 -- -- 90
2019-12-01 23:00:00 12.3 9 Oeste 18 Oeste 0 -- -- 90
2019-12-01 22:00:00 12.3 13 Noroeste 21 Oeste 0 -- -- 89
2019-12-01 21:00:00 12.5 13 Oeste 21 Oeste 0 -- -- 89
2019-12-01 20:00:00 12.8 8 Oeste 16 Oeste 0 -- -- 91
2019-12-01 19:00:00 13 5 Noroeste 22 Oeste 0.6 -- -- 91
2019-12-01 18:00:00 13.5 8 Noroeste 16 Noroeste 0.4 -- -- 90
2019-12-01 17:00:00 14 9 Oeste 33 Oeste 0.4 -- -- 86
2019-12-01 16:00:00 16.4 15 Oeste 35 Oeste 0 -- -- 67
2019-12-01 15:00:00 18.1 17 Oeste 34 Oeste 0 -- -- 58
2019-12-01 14:00:00 18.4 21 Noroeste 39 Norte 0 -- -- 55
2019-12-01 13:00:00 17.3 22 Noroeste 42 Noroeste 0.2 -- -- 56
2019-12-01 12:00:00 16.7 21 Noroeste 33 Noroeste 0 -- -- 56
2019-12-01 11:00:00 15.5 12 Noroeste 30 Oeste 0 -- -- 72
2019-12-01 10:00:00 13.9 11 Noroeste 19 Oeste 0 -- -- 78
2019-12-01 09:00:00 13.1 9 Noroeste 20 Oeste 0 -- -- 81
2019-12-01 08:00:00 13 11 Noroeste 19 Oeste 0 -- -- 85
2019-12-01 07:00:00 13.8 11 Noroeste 19 Noroeste 0 -- -- 80
2019-12-01 06:00:00 14.3 17 Noroeste 38 Norte 0 -- -- 78
2019-12-01 05:00:00 14.5 22 Noroeste 32 Norte 0 -- -- 81
2019-12-01 04:00:00 14.9 12 Noroeste 26 Noroeste 0.2 -- -- 91
2019-12-01 03:00:00 15.3 20 Oeste 32 Oeste 0 -- -- 87
2019-12-01 02:00:00 15.5 17 Oeste 28 Noroeste 0 -- -- 84
2019-12-01 01:00:00 14.4 6 Noroeste 23 Noroeste 0 -- -- 78
2019-12-01 00:00:00 14.3 14 Noroeste 32 Noroeste 0 -- -- 76
2019-11-30 23:00:00 14.7 19 Noroeste 39 Noroeste 0 -- -- 74
2019-11-30 22:00:00 15.1 24 Noroeste 36 Noroeste 0 -- -- 73
2019-11-30 21:00:00 15.1 22 Noroeste 38 Noroeste 0 -- -- 75
2019-11-30 20:00:00 15.6 23 Noroeste 39 Noroeste 0 -- -- 76
2019-11-30 19:00:00 16.7 17 Noroeste 26 Noroeste 0 -- -- 72
2019-11-30 18:00:00 18.3 16 Noroeste 33 Noroeste 0 -- -- 64
2019-11-30 17:00:00 20.7 23 Oeste 33 Oeste 0 -- -- 55
2019-11-30 16:00:00 19.5 6 Este 10 Nordeste 0 -- -- 61
2019-11-30 15:00:00 20.8 5 Este 19 Noroeste 0 -- -- 59
2019-11-30 14:00:00 20.5 4 Sur 12 Sur 0 -- -- 61
2019-11-30 13:00:00 18.5 6 Este 10 Sur 0 -- -- 64
2019-11-30 12:00:00 18.1 3 Este 9 Este 0 -- -- 64
2019-11-30 11:00:00 16.9 4 Nordeste 5 Nordeste 0 -- -- 68
2019-11-30 10:00:00 15.9 2 Nordeste 5 Nordeste 0 -- -- 70
2019-11-30 09:00:00 13.2 4 Nordeste 5 Nordeste 0 -- -- 78
2019-11-30 08:00:00 12.4 3 Norte 5 Norte 0 -- -- 75
2019-11-30 07:00:00 12.8 0 Calma 8 Norte 0 -- -- 77
2019-11-30 06:00:00 12.9 5 Norte 9 Norte 0 -- -- 76
2019-11-30 05:00:00 12.4 4 Noroeste 6 Noroeste 0 -- -- 78
2019-11-30 04:00:00 12.6 0 Calma 6 Norte 0 -- -- 85
2019-11-30 03:00:00 12.8 5 Norte 9 Noroeste 0 -- -- 87
2019-11-30 02:00:00 13.4 3 Norte 10 Nordeste 0 -- -- 80
2019-11-30 01:00:00 14 4 Norte 9 Este 0 -- -- 78
2019-11-30 00:00:00 15.3 3 Norte 7 Norte 0 -- -- 72
2019-11-29 23:00:00 15.3 4 Norte 9 Noroeste 0 -- -- 73
2019-11-29 22:00:00 15.3 8 Noroeste 11 Noroeste 0 -- -- 77
2019-11-29 21:00:00 15.7 4 Norte 8 Noroeste 0 -- -- 75
2019-11-29 20:00:00 16.1 2 Norte 7 Norte 0 -- -- 71
2019-11-29 19:00:00 17.2 4 Noroeste 6 Noroeste 0 -- -- 65
2019-11-29 18:00:00 19.8 3 Nordeste 8 Este 0 -- -- 56
2019-11-29 17:00:00 22.1 5 Este 11 Este 0 -- -- 51
2019-11-29 16:00:00 22.2 6 Nordeste 10 Este 0 -- -- 55
2019-11-29 15:00:00 22.3 7 Este 10 Este 0 -- -- 56
2019-11-29 14:00:00 22.2 4 Sur 11 Sur 0 -- -- 53
2019-11-29 13:00:00 20.5 6 Sur 13 Sur 0 -- -- 54
2019-11-29 12:00:00 19.6 4 Sudeste 13 Norte 0 -- -- 52
2019-11-29 11:00:00 18.1 8 Noroeste 13 Noroeste 0 -- -- 56
2019-11-29 10:00:00 16.6 3 Sur 13 Noroeste 0 -- -- 62
2019-11-29 09:00:00 13.5 11 Noroeste 18 Noroeste 0 -- -- 71
2019-11-29 08:00:00 12.7 11 Noroeste 20 Noroeste 0 -- -- 73
2019-11-29 07:00:00 12.7 13 Noroeste 21 Noroeste 0 -- -- 72
2019-11-29 06:00:00 12.5 14 Noroeste 21 Noroeste 0 -- -- 74
2019-11-29 05:00:00 13.2 16 Noroeste 23 Noroeste 0 -- -- 71
2019-11-29 04:00:00 13.7 14 Noroeste 22 Noroeste 0 -- -- 70
2019-11-29 03:00:00 13.2 15 Noroeste 24 Noroeste 0 -- -- 75
2019-11-29 02:00:00 13.1 14 Noroeste 23 Noroeste 0 -- -- 76
2019-11-29 01:00:00 13.5 16 Noroeste 24 Noroeste 0 -- -- 76
2019-11-29 00:00:00 13.9 19 Noroeste 26 Noroeste 0 -- -- 76
2019-11-28 23:00:00 14 18 Noroeste 26 Noroeste 0 -- -- 77
2019-11-28 22:00:00 14.1 17 Noroeste 30 Norte 0 -- -- 78
2019-11-28 21:00:00 14.7 15 Noroeste 26 Noroeste 0 -- -- 78
2019-11-28 20:00:00 15.6 16 Noroeste 28 Noroeste 0 -- -- 75
2019-11-28 19:00:00 16.7 22 Noroeste 31 Oeste 0 -- -- 70
2019-11-28 18:00:00 17.8 19 Noroeste 32 Oeste 0 -- -- 65
2019-11-28 17:00:00 20.6 19 Noroeste 30 Noroeste 0 -- -- 56
2019-11-28 16:00:00 21.7 18 Noroeste 37 Oeste 0 -- -- 50
2019-11-28 15:00:00 21.4 19 Noroeste 34 Noroeste 0 -- -- 52
2019-11-28 14:00:00 21.2 19 Noroeste 38 Norte 0 -- -- 52
2019-11-28 13:00:00 20.3 14 Noroeste 33 Noroeste 0 -- -- 54
2019-11-28 12:00:00 18.8 15 Norte 28 Norte 0 -- -- 58
2019-11-28 11:00:00 16.7 11 Norte 29 Norte 0 -- -- 64
2019-11-28 10:00:00 14.9 12 Norte 26 Norte 0 -- -- 70
2019-11-28 09:00:00 14.3 15 Norte 28 Norte 0 -- -- 71
2019-11-28 08:00:00 12.8 14 Noroeste 28 Noroeste 0 -- -- 77
2019-11-28 07:00:00 13 6 Noroeste 23 Norte 0 -- -- 77
2019-11-28 06:00:00 12.7 10 Noroeste 25 Norte 0 -- -- 80
2019-11-28 05:00:00 12.6 11 Noroeste 26 Noroeste 0 -- -- 83
2019-11-28 04:00:00 12.5 15 Noroeste 23 Norte 0 -- -- 88
2019-11-28 03:00:00 12.8 11 Noroeste 19 Noroeste 0 -- -- 87
2019-11-28 02:00:00 13.5 12 Noroeste 22 Noroeste 0 -- -- 85
2019-11-28 01:00:00 13.6 12 Noroeste 19 Noroeste 0 -- -- 85
2019-11-28 00:00:00 14 9 Noroeste 23 Noroeste 0 -- -- 83
2019-11-27 23:00:00 14 9 Noroeste 19 Noroeste 0 -- -- 86
2019-11-27 22:00:00 14.2 9 Noroeste 17 Noroeste 0 -- -- 86
2019-11-27 21:00:00 14.8 6 Noroeste 24 Noroeste 0 -- -- 84
2019-11-27 20:00:00 15.6 15 Noroeste 29 Noroeste 0 -- -- 82
2019-11-27 19:00:00 16.1 17 Oeste 27 Oeste 0 -- -- 83
2019-11-27 18:00:00 17.2 16 Oeste 30 Oeste 0 -- -- 77
2019-11-27 17:00:00 18.5 21 Oeste 31 Oeste 0 -- -- 72
2019-11-27 16:00:00 19.5 20 Oeste 32 Noroeste 0 -- -- 67
2019-11-27 15:00:00 19.7 22 Noroeste 31 Oeste 0 -- -- 67
2019-11-27 14:00:00 19.3 16 Oeste 32 Oeste 0 -- -- 68
2019-11-27 06:00:00 -- -- -- -- -- -- -- -- --
2019-11-27 05:00:00 -- -- -- -- -- -- -- -- --
2019-11-27 04:00:00 15.6 11 Noroeste 20 Oeste 0 -- -- 92
2019-11-27 03:00:00 16.1 11 Noroeste 27 Oeste 0 -- -- 87
2019-11-27 02:00:00 16.9 17 Oeste 36 Oeste 0 -- -- 82
2019-11-27 01:00:00 17.3 26 Oeste 42 Noroeste 0 -- -- 81
2019-11-27 00:00:00 17 19 Noroeste 32 Oeste 0 -- -- 81
2019-11-26 23:00:00 16.7 17 Noroeste 26 Oeste 0 -- -- 82
2019-11-26 22:00:00 17.1 16 Noroeste 31 Noroeste 0 -- -- 81
2019-11-26 21:00:00 17.3 23 Noroeste 37 Noroeste 0 -- -- 79
2019-11-26 20:00:00 17.6 17 Noroeste 40 Noroeste 0 -- -- 80
2019-11-26 19:00:00 17.6 21 Noroeste 36 Noroeste 0 -- -- 79
2019-11-26 18:00:00 18.3 25 Oeste 44 Oeste 0 -- -- 75
2019-11-26 17:00:00 19.1 20 Noroeste 37 Noroeste 0 -- -- 75
2019-11-26 16:00:00 19.4 21 Noroeste 39 Noroeste 0 -- -- 78
2019-11-26 15:00:00 19.5 23 Oeste 41 Noroeste 0 -- -- 78
2019-11-26 14:00:00 20.8 25 Oeste 36 Oeste 0 -- -- 72
2019-11-26 13:00:00 21.5 17 Noroeste 30 Oeste 0 -- -- 68
2019-11-26 12:00:00 20.6 21 Noroeste 29 Noroeste 0 -- -- 69
2019-11-26 11:00:00 19 10 Oeste 23 Noroeste 0 -- -- 75
2019-11-26 10:00:00 18.1 14 Noroeste 26 Noroeste 0 -- -- 76
2019-11-26 09:00:00 16.1 15 Norte 27 Norte 0 -- -- 81
2019-11-26 08:00:00 16.4 22 Norte 35 Norte 0 -- -- 78
2019-11-26 07:00:00 15.2 19 Noroeste 28 Norte 0 -- -- 87
2019-11-26 06:00:00 14.7 16 Noroeste 22 Noroeste 0 -- -- 89
2019-11-26 05:00:00 14.9 10 Noroeste 19 Noroeste 0 -- -- 90
2019-11-26 04:00:00 15.3 6 Noroeste 18 Norte 0 -- -- 90
2019-11-26 03:00:00 15.6 6 Noroeste 22 Noroeste 0 -- -- 93
2019-11-26 02:00:00 16 10 Noroeste 24 Noroeste 0 -- -- 93
2019-11-26 01:00:00 16.4 11 Noroeste 26 Noroeste 0 -- -- 92
2019-11-26 00:00:00 16.5 10 Oeste 24 Oeste 0 -- -- 90
2019-11-25 23:00:00 16.3 14 Oeste 21 Oeste 0 -- -- 91
2019-11-25 22:00:00 16.3 10 Noroeste 19 Oeste 0 -- -- 90
2019-11-25 21:00:00 16 10 Noroeste 17 Oeste 0 -- -- 91
2019-11-25 20:00:00 16 9 Noroeste 21 Oeste 0 -- -- 91
2019-11-25 19:00:00 16.2 8 Noroeste 26 Noroeste 0 -- -- 89
2019-11-25 18:00:00 17.1 10 Noroeste 26 Oeste 0 -- -- 85
2019-11-25 17:00:00 17.8 13 Noroeste 30 Noroeste 0 -- -- 81
2019-11-25 16:00:00 17.6 15 Oeste 33 Norte 0 -- -- 81
2019-11-25 15:00:00 17.7 18 Noroeste 33 Noroeste 0 -- -- 80
2019-11-25 14:00:00 18.1 24 Noroeste 38 Noroeste 0 -- -- 76
2019-11-25 13:00:00 17.9 26 Noroeste 43 Noroeste 0 -- -- 77
2019-11-25 12:00:00 17.5 26 Oeste 42 Oeste 0 -- -- 78
2019-11-25 11:00:00 16.8 26 Noroeste 38 Oeste 0 -- -- 80
2019-11-25 10:00:00 15.4 21 Noroeste 33 Noroeste 0 -- -- 84
2019-11-25 09:00:00 14.2 17 Noroeste 25 Noroeste 0 -- -- 88
2019-11-25 08:00:00 13.3 14 Noroeste 30 Noroeste 0 -- -- 86
2019-11-25 07:00:00 12.9 17 Noroeste 30 Noroeste 0 -- -- 83
2019-11-25 06:00:00 12.4 16 Noroeste 32 Noroeste 0 -- -- 83
2019-11-25 05:00:00 13.6 24 Noroeste 33 Noroeste 0 -- -- 78
2019-11-25 04:00:00 13.5 11 Noroeste 39 Noroeste 0 -- -- 79
2019-11-25 03:00:00 13.6 16 Noroeste 40 Norte 0 -- -- 78
2019-11-25 02:00:00 12.9 17 Noroeste 35 Norte 0 -- -- 80
2019-11-25 01:00:00 12.8 18 Noroeste 36 Norte 0 -- -- 80
2019-11-25 00:00:00 11.4 12 Noroeste 23 Oeste 0 -- -- 81
2019-11-24 23:00:00 11.7 10 Noroeste 25 Noroeste 0 -- -- 79
2019-11-24 22:00:00 11.7 9 Noroeste 17 Noroeste 0 -- -- 77
2019-11-24 21:00:00 12 13 Noroeste 19 Noroeste 0 -- -- 76
2019-11-24 20:00:00 12.6 8 Noroeste 22 Noroeste 0 -- -- 75
2019-11-24 19:00:00 13.8 17 Norte 35 Noroeste 0 -- -- 66
2019-11-24 18:00:00 14.8 20 Noroeste 43 Noroeste 0 -- -- 62
2019-11-24 17:00:00 17.2 19 Norte 36 Noroeste 0 -- -- 54
2019-11-24 16:00:00 17.9 17 Noroeste 42 Noroeste 0 -- -- 52
2019-11-24 15:00:00 17.7 23 Noroeste 39 Oeste 0 -- -- 48
2019-11-24 14:00:00 16.8 26 Noroeste 42 Oeste 0 -- -- 47
2019-11-24 13:00:00 16.5 22 Noroeste 40 Noroeste 0 -- -- 51
2019-11-24 12:00:00 15.4 16 Noroeste 31 Noroeste 0 -- -- 59
2019-11-24 11:00:00 13.2 16 Noroeste 28 Noroeste 0 -- -- 69
2019-11-24 10:00:00 11.3 19 Noroeste 30 Noroeste 0 -- -- 77
2019-11-24 09:00:00 10 16 Noroeste 26 Noroeste 0 -- -- 79
2019-11-24 08:00:00 9.5 17 Noroeste 25 Noroeste 0 -- -- 80
2019-11-24 07:00:00 9.4 16 Noroeste 22 Noroeste 0 -- -- 80
2019-11-24 06:00:00 10.1 15 Noroeste 30 Norte 0 -- -- 79
2019-11-24 05:00:00 10.8 19 Noroeste 31 Noroeste 0 -- -- 76
2019-11-24 04:00:00 11.4 22 Noroeste 31 Noroeste 0 -- -- 74
2019-11-24 03:00:00 11.2 19 Noroeste 30 Noroeste 0 -- -- 76
2019-11-24 02:00:00 11.2 20 Noroeste 30 Noroeste 0 -- -- 78
2019-11-24 01:00:00 11.7 17 Norte 33 Noroeste 0 -- -- 76
2019-11-24 00:00:00 11.2 17 Noroeste 24 Noroeste 0 -- -- 83
2019-11-23 23:00:00 10.9 9 Noroeste 14 Noroeste 0 -- -- 85
2019-11-23 22:00:00 11 5 Norte 10 Sudoeste 0 -- -- 84
2019-11-23 21:00:00 12.6 5 Oeste 16 Sudoeste 0 -- -- 81
2019-11-23 20:00:00 13.2 7 Sudoeste 31 Oeste 0 -- -- 78
2019-11-23 19:00:00 13.9 20 Oeste 29 Oeste 0 -- -- 73
2019-11-23 18:00:00 15 16 Noroeste 31 Norte 0 -- -- 65
2019-11-23 17:00:00 16.5 18 Noroeste 37 Noroeste 0 -- -- 60
2019-11-23 16:00:00 16.4 18 Noroeste 39 Noroeste 0 -- -- 60
2019-11-23 15:00:00 15.9 21 Noroeste 49 Oeste 0 -- -- 60
2019-11-23 14:00:00 16.9 23 Norte 47 Noroeste 0 -- -- 57
2019-11-23 13:00:00 15.9 25 Noroeste 48 Norte 0 -- -- 59
2019-11-23 12:00:00 15.1 27 Norte 51 Norte 0 -- -- 64
2019-11-23 11:00:00 14.9 27 Noroeste 46 Noroeste 0 -- -- 69
2019-11-23 10:00:00 14.3 27 Noroeste 51 Oeste 0 -- -- 74
2019-11-23 09:00:00 13.3 25 Noroeste 43 Norte 0 -- -- 76
2019-11-23 08:00:00 13.3 17 Noroeste 49 Oeste 0 -- -- 77
2019-11-23 07:00:00 13.8 25 Noroeste 46 Oeste 0 -- -- 85
2019-11-23 06:00:00 14.1 21 Oeste 40 Oeste 0 -- -- 82
2019-11-23 05:00:00 14.3 24 Noroeste 44 Noroeste 0 -- -- 78
2019-11-23 04:00:00 14.4 18 Noroeste 45 Noroeste 0 -- -- 81
2019-11-23 03:00:00 14.6 24 Noroeste 42 Noroeste 0 -- -- 83
2019-11-23 02:00:00 14.7 24 Noroeste 53 Oeste 0 -- -- 83
2019-11-23 01:00:00 15.2 26 Noroeste 50 Oeste 0 -- -- 83
2019-11-23 00:00:00 15 29 Noroeste 51 Noroeste 0 -- -- 77
2019-11-22 23:00:00 14.5 32 Norte 56 Noroeste 0.2 -- -- 87
2019-11-22 22:00:00 14.4 26 Noroeste 50 Noroeste 0 -- -- 91
2019-11-22 21:00:00 16.6 28 Noroeste 60 Oeste 5.2 -- -- 95
2019-11-22 20:00:00 17.4 31 Oeste 63 Oeste 3 -- -- 94
2019-11-22 19:00:00 17.4 29 Oeste 67 Noroeste 1.2 -- -- 91
2019-11-22 18:00:00 18.4 40 Oeste 69 Oeste 0 -- -- 83
2019-11-22 17:00:00 17.8 29 Oeste 58 Oeste 0 -- -- 87
2019-11-22 16:00:00 17.5 32 Oeste 51 Oeste 0.2 -- -- 88
2019-11-22 15:00:00 16.5 26 Oeste 49 Oeste 0.6 -- -- 95
2019-11-22 14:00:00 15.8 24 Oeste 46 Oeste 0 -- -- 96
2019-11-22 13:00:00 15.7 24 Sudoeste 37 Oeste 0.2 -- -- 96
2019-11-22 12:00:00 15.3 19 Sudoeste 32 Oeste 0.4 -- -- 97
2019-11-22 11:00:00 15.1 12 Sudoeste 27 Oeste 0.6 -- -- 97
2019-11-22 10:00:00 14.8 15 Sudoeste 36 Oeste 0.4 -- -- 97
2019-11-22 09:00:00 14.8 15 Oeste 29 Oeste 3 -- -- 98
2019-11-22 08:00:00 14.8 9 Oeste 30 Oeste 1.6 -- -- 98
2019-11-22 07:00:00 14.5 14 Sudoeste 23 Oeste 16 -- -- 97
2019-11-22 06:00:00 14.4 11 Sudoeste 19 Sudoeste 1 -- -- 97
2019-11-22 05:00:00 14.4 13 Sudoeste 26 Sudoeste 1 -- -- 97
2019-11-22 04:00:00 14.6 13 Sudoeste 31 Sudoeste 0.2 -- -- 97
2019-11-22 03:00:00 14.5 12 Oeste 20 Sudoeste 2.2 -- -- 97
2019-11-22 02:00:00 14.2 4 Sudoeste 9 Sudoeste 0.4 -- -- 96
2019-11-22 01:00:00 14.3 4 Oeste 21 Noroeste 0.2 -- -- 95
2019-11-22 00:00:00 14.4 14 Oeste 23 Oeste 0.2 -- -- 95
2019-11-21 23:00:00 14 3 Oeste 6 Noroeste 1.2 -- -- 95
2019-11-21 22:00:00 14.1 5 Noroeste 15 Noroeste 0 -- -- 95
2019-11-21 21:00:00 14.1 5 Noroeste 8 Noroeste 0 -- -- 95
2019-11-21 20:00:00 14.3 2 Sur 12 Oeste 0 -- -- 95
2019-11-21 19:00:00 14.3 4 Noroeste 13 Oeste 0 -- -- 96
2019-11-21 18:00:00 14.4 6 Oeste 14 Oeste 1.2 -- -- 95
2019-11-21 17:00:00 14.4 4 Oeste 12 Sudoeste 8 -- -- 95
2019-11-21 16:00:00 14.6 8 Oeste 22 Sudoeste 6.2 -- -- 94
2019-11-21 15:00:00 15.1 5 Oeste 10 Oeste 1.2 -- -- 93
2019-11-21 14:00:00 15 4 Sudoeste 15 Sudoeste 0.6 -- -- 93
2019-11-21 13:00:00 15 8 Sudoeste 13 Sudoeste 0.6 -- -- 96
2019-11-21 12:00:00 14 4 Sudoeste 9 Sudoeste 0.4 -- -- 96
2019-11-21 11:00:00 13.8 3 Sur 12 Oeste 0 -- -- 96
2019-11-21 10:00:00 12.8 5 Sudoeste 9 Oeste 1 -- -- 96
2019-11-21 09:00:00 12.6 4 Oeste 10 Noroeste 1 -- -- 96
2019-11-21 08:00:00 12.6 2 Sur 7 Sur 0.6 -- -- 94
2019-11-21 07:00:00 12.8 4 Oeste 16 Oeste 0.4 -- -- 94
2019-11-21 06:00:00 12.7 7 Oeste 16 Oeste 0 -- -- 94
2019-11-21 05:00:00 12.5 10 Oeste 14 Oeste 0 -- -- 95
2019-11-21 04:00:00 12.2 7 Noroeste 12 Noroeste 2 -- -- 94
2019-11-21 03:00:00 12.1 6 Noroeste 12 Noroeste 0.2 -- -- 94
2019-11-21 02:00:00 11.8 10 Noroeste 16 Noroeste 0.4 -- -- 93
2019-11-21 01:00:00 11.7 11 Noroeste 15 Oeste 0 -- -- 92
2019-11-21 00:00:00 11.5 8 Noroeste 13 Oeste 0 -- -- 93
2019-11-20 23:00:00 11.1 7 Noroeste 11 Noroeste 0 -- -- 94
2019-11-20 22:00:00 11.2 3 Norte 5 Norte 0 -- -- 92
2019-11-20 21:00:00 12 0 Calma 2 Nordeste 0 -- -- 92
2019-11-20 20:00:00 11.9 0 Calma 4 Norte 0 -- -- 92
2019-11-20 19:00:00 11.8 0 Calma 9 Sudoeste 0 -- -- 91
2019-11-20 18:00:00 12 7 Sudoeste 15 Sudoeste 0 -- -- 90
2019-11-20 17:00:00 12.2 4 Nordeste 8 Nordeste 1.2 -- -- 91
2019-11-20 16:00:00 12.3 2 Sur 10 Sudeste 0.4 -- -- 90
2019-11-20 15:00:00 12.5 5 Sur 21 Sur 1 -- -- 90
2019-11-20 14:00:00 12.8 8 Sudoeste 13 Oeste 0 -- -- 84
2019-11-20 13:00:00 12.5 2 Nordeste 9 Noroeste 0 -- -- 87
2019-11-20 12:00:00 12.5 3 Noroeste 12 Noroeste 0.8 -- -- 87
2019-11-20 11:00:00 12.1 8 Noroeste 12 Noroeste 0 -- -- 86
2019-11-20 10:00:00 12.4 5 Noroeste 10 Oeste 0.4 -- -- 84
2019-11-20 09:00:00 11.9 5 Noroeste 12 Noroeste 0 -- -- 79
2019-11-20 08:00:00 10 9 Noroeste 15 Noroeste 0 -- -- 79
2019-11-20 07:00:00 9.4 11 Noroeste 15 Noroeste 0 -- -- 78
2019-11-20 06:00:00 9 11 Noroeste 16 Noroeste 0 -- -- 78
2019-11-20 05:00:00 9.3 9 Noroeste 13 Noroeste 0 -- -- 81
2019-11-20 04:00:00 9.4 12 Noroeste 16 Noroeste 0 -- -- 80
2019-11-20 03:00:00 9.6 10 Noroeste 18 Noroeste 0 -- -- 78
2019-11-20 02:00:00 10.2 12 Noroeste 15 Noroeste 0 -- -- 77
2019-11-20 01:00:00 10.9 8 Noroeste 11 Noroeste 0 -- -- 77
2019-11-20 00:00:00 11.5 10 Noroeste 12 Noroeste 0 -- -- 73
2019-11-19 23:00:00 12.4 6 Noroeste 13 Noroeste 0 -- -- 71
2019-11-19 22:00:00 12.9 9 Noroeste 18 Noroeste 0 -- -- 74
2019-11-19 21:00:00 13.1 12 Noroeste 22 Noroeste 0 -- -- 75
2019-11-19 20:00:00 13.3 14 Noroeste 22 Noroeste 0 -- -- 73
2019-11-19 19:00:00 13.7 15 Noroeste 26 Oeste 0 -- -- 70
2019-11-19 18:00:00 14.5 16 Noroeste 29 Oeste 0 -- -- 66
2019-11-19 17:00:00 16.6 15 Noroeste 26 Noroeste 0 -- -- 56
2019-11-19 16:00:00 18 12 Oeste 23 Oeste 0 -- -- 47
2019-11-19 15:00:00 18.1 15 Oeste 29 Oeste 0 -- -- 45
2019-11-19 14:00:00 18.2 13 Noroeste 27 Oeste 0 -- -- 44
2019-11-19 13:00:00 16.6 13 Noroeste 27 Norte 0 -- -- 53
2019-11-19 12:00:00 14.8 15 Noroeste 28 Noroeste 0 -- -- 64
2019-11-19 11:00:00 13.8 17 Noroeste 32 Noroeste 0 -- -- 65
2019-11-19 10:00:00 12.2 18 Noroeste 27 Noroeste 0 -- -- 66
2019-11-19 09:00:00 10.4 13 Noroeste 23 Noroeste 0 -- -- 68
2019-11-19 08:00:00 9.6 10 Noroeste 18 Noroeste 0 -- -- 70
2019-11-19 07:00:00 8.9 14 Noroeste 26 Noroeste 0 -- -- 71
2019-11-19 06:00:00 9.3 18 Noroeste 28 Noroeste 0 -- -- 69
2019-11-19 05:00:00 9.8 18 Noroeste 26 Noroeste 0 -- -- 68
2019-11-19 04:00:00 10.3 18 Noroeste 25 Noroeste 0 -- -- 67
2019-11-19 03:00:00 10.4 15 Noroeste 24 Noroeste 0 -- -- 67
2019-11-19 02:00:00 10.8 13 Noroeste 27 Noroeste 0 -- -- 64
2019-11-19 01:00:00 10.9 17 Noroeste 28 Noroeste 0 -- -- 65
2019-11-19 00:00:00 10.7 19 Noroeste 30 Noroeste 0 -- -- 66
2019-11-18 23:00:00 10.8 16 Noroeste 27 Noroeste 0 -- -- 66
2019-11-18 22:00:00 11.2 15 Noroeste 27 Noroeste 0 -- -- 65
2019-11-18 21:00:00 11.5 15 Noroeste 28 Noroeste 0 -- -- 64
2019-11-18 20:00:00 12.3 14 Norte 30 Noroeste 0 -- -- 63
2019-11-18 19:00:00 13.1 19 Noroeste 30 Noroeste 0 -- -- 60
2019-11-18 18:00:00 14.2 13 Noroeste 35 Noroeste 0 -- -- 58
2019-11-18 17:00:00 16.9 19 Noroeste 38 Noroeste 0 -- -- 51
2019-11-18 16:00:00 17.2 26 Norte 41 Noroeste 0 -- -- 50
2019-11-18 15:00:00 16 27 Noroeste 39 Noroeste 0 -- -- 53
2019-11-18 14:00:00 15.4 24 Noroeste 37 Noroeste 0 -- -- 53
2019-11-18 13:00:00 14.4 23 Noroeste 37 Noroeste 0 -- -- 58
2019-11-18 12:00:00 13.6 21 Noroeste 34 Noroeste 0 -- -- 62
2019-11-18 11:00:00 12.1 19 Norte 40 Noroeste 0 -- -- 67
2019-11-18 10:00:00 11.1 19 Noroeste 31 Noroeste 0 -- -- 73
2019-11-18 09:00:00 10 23 Noroeste 45 Noroeste 0 -- -- 74
2019-11-18 08:00:00 9.9 34 Noroeste 51 Noroeste 0 -- -- 76
2019-11-18 07:00:00 10.5 30 Norte 46 Norte 0 -- -- 74
2019-11-18 06:00:00 12 35 Noroeste 56 Norte 0 -- -- 69
2019-11-18 05:00:00 14.1 21 Norte 40 Noroeste 0.2 -- -- 85
2019-11-18 04:00:00 13.9 26 Noroeste 44 Oeste 0.6 -- -- 89
2019-11-18 03:00:00 15.1 19 Noroeste 51 Oeste 0 -- -- 84
2019-11-18 02:00:00 15.4 18 Noroeste 40 Oeste 0 -- -- 82
2019-11-18 01:00:00 15.4 19 Oeste 41 Oeste 0 -- -- 82
2019-11-18 00:00:00 15.3 24 Oeste 41 Oeste 0 -- -- 82
2019-11-17 23:00:00 15.3 23 Oeste 42 Oeste 0 -- -- 83
2019-11-17 22:00:00 14.9 16 Oeste 33 Oeste 0 -- -- 86
2019-11-17 21:00:00 14.9 9 Oeste 35 Oeste 0.4 -- -- 88
2019-11-17 20:00:00 15.1 9 Oeste 24 Oeste 0 -- -- 84
2019-11-17 19:00:00 14.6 9 Oeste 30 Oeste 0 -- -- 85
2019-11-17 18:00:00 14.3 14 Oeste 33 Oeste 0 -- -- 87
2019-11-17 17:00:00 14.1 21 Oeste 39 Oeste 0 -- -- 84
2019-11-17 16:00:00 14.1 22 Oeste 42 Oeste 0 -- -- 80
2019-11-17 15:00:00 13.9 18 Oeste 37 Oeste 0 -- -- 79
2019-11-17 14:00:00 13.2 19 Noroeste 35 Noroeste 0 -- -- 78
2019-11-17 13:00:00 13.2 16 Noroeste 36 Oeste 0 -- -- 75
2019-11-17 12:00:00 13.6 22 Noroeste 51 Noroeste 0 -- -- 66
2019-11-17 11:00:00 13.4 25 Noroeste 36 Noroeste 0 -- -- 63
2019-11-17 10:00:00 12.2 15 Noroeste 25 Oeste 0 -- -- 60
2019-11-17 09:00:00 10.1 13 Noroeste 24 Noroeste 0 -- -- 62
2019-11-17 08:00:00 9.1 13 Noroeste 26 Norte 0 -- -- 64
2019-11-17 07:00:00 8.5 13 Noroeste 21 Noroeste 0 -- -- 66
2019-11-17 06:00:00 8.2 14 Noroeste 24 Noroeste 0 -- -- 68
2019-11-17 05:00:00 8.1 14 Noroeste 26 Norte 0 -- -- 69
2019-11-17 04:00:00 8.2 13 Noroeste 21 Noroeste 0 -- -- 71
2019-11-17 03:00:00 7.1 10 Noroeste 16 Noroeste 0 -- -- 75
2019-11-17 02:00:00 8.1 11 Noroeste 16 Noroeste 0 -- -- 72
2019-11-17 01:00:00 9.4 13 Noroeste 22 Noroeste 0 -- -- 69
2019-11-17 00:00:00 9.4 14 Noroeste 27 Noroeste 0 -- -- 67
2019-11-16 23:00:00 9.4 15 Noroeste 27 Norte 0 -- -- 64
2019-11-16 22:00:00 8.8 16 Noroeste 32 Noroeste 0 -- -- 66
2019-11-16 21:00:00 9.5 14 Noroeste 28 Noroeste 0 -- -- 63
2019-11-16 20:00:00 10.3 11 Oeste 22 Oeste 0 -- -- 55
2019-11-16 19:00:00 11.3 11 Oeste 23 Oeste 0 -- -- 51
2019-11-16 18:00:00 12.6 13 Noroeste 37 Norte 0 -- -- 49
2019-11-16 17:00:00 15.5 16 Norte 39 Noroeste 0 -- -- 42
2019-11-16 16:00:00 16 21 Noroeste 38 Oeste 0 -- -- 38
2019-11-16 15:00:00 15.7 23 Noroeste 39 Noroeste 0 -- -- 39
2019-11-16 14:00:00 15.9 22 Noroeste 32 Oeste 0 -- -- 38
2019-11-16 13:00:00 14.6 19 Noroeste 34 Noroeste 0 -- -- 40
2019-11-16 12:00:00 12.9 17 Noroeste 35 Noroeste 0 -- -- 45
2019-11-16 11:00:00 10.6 22 Noroeste 33 Noroeste 0 -- -- 54
2019-11-16 10:00:00 8 21 Noroeste 34 Noroeste 0 -- -- 62
2019-11-16 09:00:00 6.4 21 Noroeste 29 Norte 0 -- -- 68
2019-11-16 08:00:00 5.8 20 Noroeste 31 Noroeste 0 -- -- 70
2019-11-16 07:00:00 6 20 Noroeste 29 Noroeste 0 -- -- 69
2019-11-16 06:00:00 6.6 17 Noroeste 25 Noroeste 0 -- -- 66
2019-11-16 05:00:00 6.3 19 Noroeste 26 Noroeste 0 -- -- 67
2019-11-16 04:00:00 6.8 16 Noroeste 23 Oeste 0 -- -- 64
2019-11-16 03:00:00 7.5 15 Noroeste 27 Norte 0 -- -- 62
2019-11-16 02:00:00 8.3 18 Noroeste 26 Noroeste 0 -- -- 60
2019-11-16 01:00:00 8.8 16 Noroeste 32 Noroeste 0 -- -- 58
2019-11-16 00:00:00 9.2 17 Noroeste 24 Oeste 0 -- -- 57
2019-11-15 23:00:00 10.1 11 Noroeste 28 Norte 0 -- -- 55
2019-11-15 22:00:00 10.7 22 Norte 32 Norte 0 -- -- 53
2019-11-15 21:00:00 10.1 8 Noroeste 21 Noroeste 0 -- -- 59
2019-11-15 20:00:00 10.5 9 Noroeste 25 Oeste 0 -- -- 58
2019-11-15 19:00:00 11.4 15 Oeste 25 Oeste 0 -- -- 55
2019-11-15 18:00:00 12.3 6 Noroeste 41 Noroeste 0 -- -- 50
2019-11-15 17:00:00 13.9 26 Noroeste 43 Noroeste 0 -- -- 43
2019-11-15 16:00:00 14.2 26 Norte 41 Norte 0 -- -- 40
2019-11-15 15:00:00 14.2 20 Norte 45 Norte 0 -- -- 40
2019-11-15 14:00:00 14.6 18 Noroeste 49 Norte 0 -- -- 40
2019-11-15 13:00:00 13.2 24 Norte 45 Norte 0 -- -- 45
2019-11-15 12:00:00 12.5 21 Norte 42 Norte 0 -- -- 50
2019-11-15 11:00:00 11 30 Norte 48 Norte 0 -- -- 61
2019-11-15 10:00:00 10.2 33 Norte 50 Norte 0 -- -- 64
2019-11-15 09:00:00 9.1 24 Norte 44 Norte 0 -- -- 69
2019-11-15 08:00:00 9 27 Noroeste 49 Norte 0 -- -- 70
2019-11-15 07:00:00 9.3 28 Norte 46 Noroeste 0 -- -- 70
2019-11-15 06:00:00 9.6 24 Norte 42 Norte 0 -- -- 69
2019-11-15 05:00:00 10.2 18 Noroeste 40 Norte 0 -- -- 70
2019-11-15 04:00:00 10.5 19 Noroeste 37 Noroeste 0 -- -- 70
2019-11-15 03:00:00 10.6 15 Noroeste 35 Noroeste 0 -- -- 73
2019-11-15 02:00:00 10.7 15 Noroeste 33 Norte 0 -- -- 74
2019-11-15 01:00:00 10.8 15 Noroeste 35 Noroeste 0 -- -- 75
2019-11-15 00:00:00 10.4 17 Noroeste 28 Noroeste 0 -- -- 76